Time;durP1;ratioP1;P1;durP2;ratioP2;P2;SDS_P1;SDS_P2;PMS_P1;PMS_P2;Temp;Humidity;BMP_temperature;BMP_pressure;BME280_temperature;BME280_humidity;BME280_pressure;Samples;Min_cycle;Max_cycle;Signal;HPM_P1;HPM_P2
2022/06/13 00:01:17;;;;;;;8.45;4.20;;;12.80;99.90;;;;;;4981683;28;20414;-78
2022/06/13 00:03:42;;;;;;;11.57;5.22;;;12.90;99.90;;;;;;5014852;28;20038;-78
2022/06/13 00:06:09;;;;;;;14.18;5.38;;;12.80;99.90;;;;;;5029833;28;20521;-77
2022/06/13 00:08:35;;;;;;;13.85;5.50;;;12.80;99.90;;;;;;5026470;28;20111;-77
2022/06/13 00:11:01;;;;;;;12.63;5.35;;;12.80;99.90;;;;;;5019620;28;20120;-78
2022/06/13 00:13:27;;;;;;;13.40;4.45;;;12.80;99.90;;;;;;5019717;28;20511;-77
2022/06/13 00:15:52;;;;;;;12.25;5.28;;;12.80;99.90;;;;;;4987411;28;20030;-77
2022/06/13 00:18:18;;;;;;;13.80;4.75;;;12.80;99.90;;;;;;4997771;28;20041;-77
2022/06/13 00:20:44;;;;;;;12.70;5.22;;;12.80;99.90;;;;;;5021184;28;20471;-77
2022/06/13 00:23:10;;;;;;;11.35;4.65;;;12.80;99.90;;;;;;4998946;28;20033;-78
2022/06/13 00:25:35;;;;;;;11.07;5.38;;;12.80;99.90;;;;;;4982392;28;20052;-77
2022/06/13 00:28:01;;;;;;;13.80;5.05;;;12.80;99.90;;;;;;5025894;28;20054;-77
2022/06/13 00:30:27;;;;;;;14.48;5.28;;;12.80;99.90;;;;;;5014621;28;20045;-77
2022/06/13 00:32:53;;;;;;;16.55;5.70;;;12.90;99.90;;;;;;5016333;28;20119;-78
2022/06/13 00:35:19;;;;;;;10.52;4.95;;;12.90;99.90;;;;;;5021140;28;20415;-78
2022/06/13 00:37:45;;;;;;;12.82;5.65;;;12.90;99.90;;;;;;5002001;28;20037;-77
2022/06/13 00:40:11;;;;;;;15.13;5.40;;;13.00;99.90;;;;;;5025652;28;20041;-77
2022/06/13 00:42:38;;;;;;;15.88;5.90;;;13.00;99.90;;;;;;5019068;28;20069;-79
2022/06/13 00:45:13;;;;;;;18.98;5.70;;;13.00;99.90;;;;;;5015507;28;20042;-77
2022/06/13 00:47:41;;;;;;;14.35;4.93;;;13.10;99.90;;;;;;5033231;28;20054;-77
2022/06/13 00:50:10;;;;;;;12.55;5.90;;;13.00;99.90;;;;;;5032464;28;20364;-77
2022/06/13 00:53:07;;;;;;;11.07;5.22;;;13.10;99.90;;;;;;5017377;28;20061;-77
2022/06/13 00:55:45;;;;;;;13.02;4.97;;;13.00;99.90;;;;;;5003841;28;20042;-77
2022/06/13 00:58:12;;;;;;;14.57;5.95;;;13.00;99.90;;;;;;5016471;28;20061;-77
2022/06/13 01:00:40;;;;;;;13.30;5.25;;;13.10;99.90;;;;;;5026351;28;20049;-78
2022/06/13 01:03:06;;;;;;;8.45;5.20;;;13.10;99.90;;;;;;5023186;28;20061;-77
2022/06/13 01:05:37;;;;;;;12.27;5.40;;;13.10;99.90;;;;;;5031842;28;20076;-77
2022/06/13 01:08:10;;;;;;;11.18;5.40;;;13.10;99.90;;;;;;5015580;28;20501;-77
2022/06/13 01:13:32;;;;;;;13.95;5.32;;;13.10;99.90;;;;;;5030900;28;20037;-77
2022/06/13 01:16:15;;;;;;;9.95;5.53;;;13.10;99.90;;;;;;5021451;28;20133;-77
2022/06/13 01:18:52;;;;;;;17.70;5.78;;;13.10;99.90;;;;;;5030974;28;20053;-77
2022/06/13 01:21:46;;;;;;;7.78;5.20;;;13.00;99.90;;;;;;5025243;28;20418;-77
2022/06/13 01:24:39;;;;;;;13.52;5.63;;;13.00;99.90;;;;;;5028754;28;20446;-77
2022/06/13 01:27:14;;;;;;;11.23;5.78;;;13.00;99.90;;;;;;5006371;28;20044;-77
2022/06/13 01:29:55;;;;;;;19.00;6.30;;;13.00;99.90;;;;;;5017355;28;20077;-77
2022/06/13 01:32:43;;;;;;;11.77;5.10;;;13.00;99.90;;;;;;5033406;28;20037;-77
2022/06/13 01:35:15;;;;;;;14.93;5.97;;;13.00;99.90;;;;;;5025258;28;20069;-77
2022/06/13 01:38:18;;;;;;;13.02;5.60;;;13.00;99.90;;;;;;5028526;28;20103;-77
2022/06/13 01:41:07;;;;;;;18.13;6.00;;;13.10;99.90;;;;;;5007332;28;20050;-77
2022/06/13 01:44:04;;;;;;;11.10;5.50;;;13.10;99.90;;;;;;5029067;28;20050;-77
2022/06/13 01:46:39;;;;;;;14.00;5.85;;;13.10;99.90;;;;;;5013967;28;20046;-77
2022/06/13 01:49:29;;;;;;;10.60;5.30;;;13.00;99.90;;;;;;5011686;28;20049;-78
2022/06/13 01:52:05;;;;;;;11.73;6.20;;;13.00;99.90;;;;;;5017639;28;20041;-77
2022/06/13 01:54:42;;;;;;;12.90;5.95;;;13.00;99.90;;;;;;5015069;28;20045;-77
2022/06/13 01:57:36;;;;;;;9.23;5.15;;;13.00;99.90;;;;;;5018586;28;20048;-77
2022/06/13 02:00:11;;;;;;;14.77;5.50;;;13.00;99.90;;;;;;5015015;28;20052;-77
2022/06/13 02:02:56;;;;;;;11.57;5.80;;;13.00;99.90;;;;;;5020731;28;20554;-77
2022/06/13 02:05:35;;;;;;;11.88;5.20;;;13.00;99.90;;;;;;5006730;28;20049;-77
2022/06/13 02:08:09;;;;;;;16.63;6.35;;;13.00;99.90;;;;;;5018298;28;20338;-77
2022/06/13 02:10:42;;;;;;;14.25;5.85;;;13.00;99.90;;;;;;5031252;28;20045;-77
2022/06/13 02:13:13;;;;;;;10.57;5.75;;;12.90;99.90;;;;;;5022474;28;20068;-77
2022/06/13 02:15:55;;;;;;;11.23;6.35;;;12.90;99.90;;;;;;5014260;28;20046;-77
2022/06/13 02:18:35;;;;;;;13.93;6.57;;;12.90;99.90;;;;;;5004250;28;20050;-76
2022/06/13 02:21:12;;;;;;;18.95;7.13;;;12.90;99.90;;;;;;5014230;28;20038;-77
2022/06/13 02:23:49;;;;;;;18.70;6.53;;;12.90;99.90;;;;;;5014865;28;20038;-77
2022/06/13 02:26:24;;;;;;;12.93;6.40;;;12.90;99.90;;;;;;5000979;28;20037;-77
2022/06/13 02:29:05;;;;;;;15.00;7.20;;;12.90;99.90;;;;;;5015190;28;20061;-77
2022/06/13 02:31:46;;;;;;;10.82;6.72;;;12.90;99.90;;;;;;5024431;28;20077;-77
2022/06/13 02:34:29;;;;;;;13.45;7.00;;;12.90;99.90;;;;;;5011642;28;20037;-77
2022/06/13 02:37:09;;;;;;;12.90;6.53;;;12.90;99.90;;;;;;5017174;28;20052;-77
2022/06/13 02:40:11;;;;;;;12.88;7.38;;;12.80;99.90;;;;;;5028602;28;20069;-77
2022/06/13 02:42:51;;;;;;;12.93;7.18;;;12.80;99.90;;;;;;4998516;28;20057;-77
2022/06/13 02:45:39;;;;;;;11.60;6.95;;;12.80;99.90;;;;;;5022368;28;20217;-77
2022/06/13 02:48:18;;;;;;;11.95;6.32;;;12.80;99.90;;;;;;5016833;28;20041;-77
2022/06/13 02:50:53;;;;;;;13.38;7.22;;;12.80;99.90;;;;;;5000988;28;20041;-77
2022/06/13 02:53:44;;;;;;;18.55;7.47;;;12.80;99.90;;;;;;5012484;28;20064;-76
2022/06/13 02:56:35;;;;;;;16.98;8.07;;;12.70;99.90;;;;;;5001569;28;20057;-77
2022/06/13 02:59:40;;;;;;;12.50;7.18;;;12.70;99.90;;;;;;5019372;28;20566;-76
2022/06/13 03:02:11;;;;;;;17.65;7.90;;;12.70;99.90;;;;;;5003924;28;20054;-77
2022/06/13 03:04:43;;;;;;;13.13;7.55;;;12.60;99.90;;;;;;5010199;28;20049;-77
2022/06/13 03:07:20;;;;;;;14.88;7.10;;;12.60;99.90;;;;;;5024382;28;20044;-77
2022/06/13 03:10:14;;;;;;;16.58;7.82;;;12.70;99.90;;;;;;5022003;28;20492;-76
2022/06/13 03:12:56;;;;;;;18.13;7.65;;;12.60;99.90;;;;;;5030218;28;20651;-76
2022/06/13 03:15:47;;;;;;;13.25;7.55;;;12.60;99.90;;;;;;5020951;28;20164;-77
2022/06/13 03:18:23;;;;;;;16.63;8.47;;;12.60;99.90;;;;;;5028997;28;20045;-77
2022/06/13 03:21:11;;;;;;;18.80;7.45;;;12.60;99.90;;;;;;5010510;28;20053;-77
2022/06/13 03:23:45;;;;;;;17.58;7.20;;;12.50;99.90;;;;;;4993512;28;20127;-77
2022/06/13 03:26:19;;;;;;;14.85;7.57;;;12.60;99.90;;;;;;5036328;28;20037;-77
2022/06/13 03:29:17;;;;;;;14.35;7.07;;;12.50;99.90;;;;;;5025823;28;20054;-76
2022/06/13 03:31:50;;;;;;;17.70;7.18;;;12.50;99.90;;;;;;5009012;28;20099;-76
2022/06/13 03:34:24;;;;;;;11.70;7.05;;;12.50;99.90;;;;;;5024775;28;20041;-77
2022/06/13 03:37:34;;;;;;;14.77;7.60;;;12.50;99.90;;;;;;5022988;28;20116;-77
2022/06/13 03:40:13;;;;;;;14.13;6.55;;;12.50;99.90;;;;;;4982080;28;20049;-77
2022/06/13 03:42:48;;;;;;;15.77;8.05;;;12.60;99.90;;;;;;4995781;28;20179;-77
2022/06/13 03:45:44;;;;;;;15.13;7.18;;;12.60;99.90;;;;;;5003999;28;20041;-77
2022/06/13 03:48:20;;;;;;;16.85;7.50;;;12.60;99.90;;;;;;5024610;28;20053;-77
2022/06/13 03:50:55;;;;;;;21.08;7.68;;;12.60;99.90;;;;;;4998002;28;20041;-77
2022/06/13 03:53:39;;;;;;;20.02;7.50;;;12.60;99.90;;;;;;5030651;28;20033;-77
2022/06/13 03:56:12;;;;;;;14.73;7.53;;;12.60;99.90;;;;;;5017042;28;20056;-76
2022/06/13 03:58:44;;;;;;;21.85;7.15;;;12.70;99.90;;;;;;5018153;28;20491;-77
2022/06/13 04:01:15;;;;;;;15.98;7.60;;;12.70;99.90;;;;;;5026490;28;20041;-77
2022/06/13 04:03:42;;;;;;;16.13;8.02;;;12.70;99.90;;;;;;5020599;28;20507;-77
2022/06/13 04:06:32;;;;;;;17.10;7.18;;;12.70;99.90;;;;;;5009467;28;20064;-78
2022/06/13 04:09:00;;;;;;;17.70;7.43;;;12.70;99.90;;;;;;5011309;28;20037;-78
2022/06/13 04:11:47;;;;;;;15.57;7.50;;;12.80;99.90;;;;;;5023666;28;20034;-77
2022/06/13 04:14:31;;;;;;;17.00;7.97;;;12.80;99.90;;;;;;5026686;28;20038;-77
2022/06/13 04:16:58;;;;;;;18.15;8.07;;;12.80;99.90;;;;;;5033905;28;20125;-78
2022/06/13 04:19:55;;;;;;;14.75;7.15;;;12.80;99.90;;;;;;5025853;28;20048;-77
2022/06/13 04:22:35;;;;;;;16.73;7.55;;;12.80;99.90;;;;;;5040076;28;20037;-77
2022/06/13 04:25:21;;;;;;;17.05;7.20;;;12.80;99.90;;;;;;5028095;28;20053;-77
2022/06/13 04:28:03;;;;;;;17.02;7.28;;;12.80;99.90;;;;;;5014462;28;20384;-77
2022/06/13 04:30:32;;;;;;;18.50;7.78;;;12.80;99.90;;;;;;5033516;28;20107;-76
2022/06/13 04:33:07;;;;;;;15.07;7.18;;;12.90;99.90;;;;;;5019605;28;20410;-77
2022/06/13 04:35:35;;;;;;;13.95;6.65;;;12.90;99.90;;;;;;5018464;28;20441;-77
2022/06/13 04:38:07;;;;;;;16.30;7.22;;;12.90;99.90;;;;;;5031339;28;20052;-77
2022/06/13 04:40:37;;;;;;;14.05;7.55;;;12.90;99.90;;;;;;5021621;28;20060;-76
2022/06/13 04:43:07;;;;;;;15.80;7.35;;;12.90;99.90;;;;;;5033580;28;20053;-76
2022/06/13 04:45:57;;;;;;;16.00;8.75;;;13.20;99.90;;;;;;5013780;28;20054;-77
2022/06/13 04:48:23;;;;;;;14.52;7.68;;;13.00;99.90;;;;;;5021957;28;20406;-76
2022/06/13 04:50:53;;;;;;;18.00;7.95;;;13.00;99.90;;;;;;5016191;28;20038;-76
2022/06/13 04:53:24;;;;;;;16.77;7.68;;;13.00;99.90;;;;;;5026360;28;20038;-78
2022/06/13 04:55:52;;;;;;;18.67;8.27;;;13.00;99.90;;;;;;5032539;28;20061;-77
2022/06/13 04:58:26;;;;;;;19.90;7.72;;;13.00;99.90;;;;;;5015405;28;20573;-77
2022/06/13 05:00:59;;;;;;;15.73;7.90;;;13.10;99.90;;;;;;5010610;28;20445;-77
2022/06/13 05:03:26;;;;;;;;;;;13.10;99.90;;;;;;5019586;28;20041;-77
2022/06/13 05:05:56;;;;;;;21.02;8.73;;;13.10;99.90;;;;;;5016789;28;19918;-76
2022/06/13 05:08:32;;;;;;;17.73;7.80;;;13.10;99.90;;;;;;5032111;28;20117;-77
2022/06/13 05:11:23;;;;;;;16.55;7.88;;;13.20;99.90;;;;;;5020320;28;20052;-76
2022/06/13 05:13:52;;;;;;;16.75;8.00;;;13.20;99.90;;;;;;5027618;28;20563;-76
2022/06/13 05:16:40;;;;;;;17.52;8.10;;;13.30;99.90;;;;;;5022213;28;20051;-76
2022/06/13 05:19:12;;;;;;;16.42;7.38;;;13.40;99.90;;;;;;5030934;28;20049;-77
2022/06/13 05:22:03;;;;;;;20.55;8.45;;;13.40;99.90;;;;;;5031736;28;20042;-78
2022/06/13 05:24:49;;;;;;;16.33;8.30;;;13.40;99.90;;;;;;5011259;28;20076;-76
2022/06/13 05:27:15;;;;;;;18.65;8.00;;;13.50;99.90;;;;;;5011628;28;20744;-78
2022/06/13 05:29:41;;;;;;;19.95;7.63;;;13.50;99.90;;;;;;4988008;28;20054;-78
2022/06/13 05:32:09;;;;;;;15.25;7.20;;;13.50;99.90;;;;;;5009924;28;20038;-77
2022/06/13 05:34:39;;;;;;;16.08;7.60;;;13.50;99.90;;;;;;5020790;28;20125;-76
2022/06/13 05:37:06;;;;;;;15.75;6.85;;;13.50;99.90;;;;;;5016639;28;20120;-77
2022/06/13 05:39:35;;;;;;;15.02;5.90;;;13.60;99.90;;;;;;5021919;28;20042;-77
2022/06/13 05:42:01;;;;;;;12.73;5.95;;;13.60;99.90;;;;;;5029683;28;20280;-76
2022/06/13 05:44:26;;;;;;;15.07;6.28;;;13.60;99.90;;;;;;5035762;28;20570;-77
2022/06/13 05:46:52;;;;;;;12.30;5.60;;;13.70;99.90;;;;;;5023548;28;20056;-75
2022/06/13 05:49:18;;;;;;;10.95;5.20;;;13.80;99.90;;;;;;5015218;28;20048;-75
2022/06/13 05:51:44;;;;;;;11.32;5.32;;;13.80;99.90;;;;;;5011245;28;20123;-77
2022/06/13 05:54:10;;;;;;;13.43;5.43;;;13.90;99.90;;;;;;5028297;28;20506;-76
2022/06/13 05:56:37;;;;;;;11.40;4.45;;;14.00;99.90;;;;;;4997285;28;20038;-76
2022/06/13 05:59:03;;;;;;;13.07;4.93;;;14.00;99.90;;;;;;5012482;28;20119;-75
2022/06/13 06:01:29;;;;;;;13.70;5.07;;;14.20;99.90;;;;;;5000525;28;20073;-76
2022/06/13 06:03:55;;;;;;;10.07;4.05;;;14.30;99.90;;;;;;5020103;28;20081;-76
2022/06/13 06:06:23;;;;;;;11.55;4.50;;;14.40;99.90;;;;;;4989604;28;20122;-74
2022/06/13 06:08:50;;;;;;;10.57;4.10;;;14.50;99.90;;;;;;5024289;28;20052;-75
2022/06/13 06:11:16;;;;;;;12.02;3.95;;;14.60;99.90;;;;;;5003746;28;20518;-75
2022/06/13 06:13:42;;;;;;;11.63;4.88;;;14.60;99.90;;;;;;5004326;28;20067;-76
2022/06/13 06:16:13;;;;;;;12.77;4.22;;;14.70;99.90;;;;;;5021647;28;20049;-76
2022/06/13 06:18:39;;;;;;;12.00;3.55;;;14.70;99.90;;;;;;5020676;28;20486;-75
2022/06/13 06:21:04;;;;;;;10.77;3.38;;;14.80;99.90;;;;;;4985906;28;20485;-74
2022/06/13 06:23:33;;;;;;;6.82;3.42;;;14.90;99.90;;;;;;4985139;28;20053;-75
2022/06/13 06:26:06;;;;;;;9.00;3.33;;;15.00;99.90;;;;;;5005841;28;20037;-75
2022/06/13 06:28:33;;;;;;;9.52;3.90;;;15.10;99.90;;;;;;5007835;28;20495;-75
2022/06/13 06:31:05;;;;;;;10.43;4.03;;;15.20;99.90;;;;;;5029559;28;20727;-74
2022/06/13 06:33:34;;;;;;;10.63;3.28;;;15.20;99.90;;;;;;5013317;28;20037;-75
2022/06/13 06:36:00;;;;;;;9.00;3.88;;;15.20;99.90;;;;;;5010195;28;20036;-75
2022/06/13 06:38:27;;;;;;;8.52;3.42;;;15.20;99.90;;;;;;4993942;28;20136;-75
2022/06/13 06:40:53;;;;;;;8.32;3.05;;;15.30;99.90;;;;;;5017957;28;20112;-76
2022/06/13 06:43:19;;;;;;;7.88;3.20;;;15.20;99.90;;;;;;5029199;28;20099;-75
2022/06/13 06:45:45;;;;;;;8.38;3.95;;;15.20;99.90;;;;;;5009646;28;20048;-75
2022/06/13 06:48:16;;;;;;;6.55;3.00;;;15.20;99.90;;;;;;5025865;28;20033;-75
2022/06/13 06:50:48;;;;;;;6.07;2.53;;;15.20;99.90;;;;;;5017277;28;20045;-75
2022/06/13 06:53:16;;;;;;;5.25;2.45;;;15.30;99.90;;;;;;5044599;28;20029;-75
2022/06/13 07:01:15;;;;;;;6.40;2.42;;;15.40;99.90;;;;;;5025646;28;20045;-73
2022/06/13 07:03:40;;;;;;;6.22;2.25;;;15.40;99.90;;;;;;5010093;28;20099;-74
2022/06/13 07:06:07;;;;;;;7.00;2.33;;;15.40;99.90;;;;;;4992336;28;20485;-75
2022/06/13 07:08:36;;;;;;;7.28;2.47;;;15.40;99.90;;;;;;5027825;28;20128;-74
2022/06/13 07:13:49;;;;;;;3.58;1.80;;;15.40;99.90;;;;;;5024173;28;20045;-75
2022/06/13 07:16:14;;;;;;;4.95;1.80;;;15.30;99.90;;;;;;4982779;28;20037;-74
2022/06/13 07:18:41;;;;;;;5.30;2.17;;;15.30;99.90;;;;;;4977151;28;20044;-73
2022/06/13 07:21:10;;;;;;;4.85;1.80;;;15.40;99.90;;;;;;5009903;28;20124;-74
2022/06/13 07:23:41;;;;;;;7.78;2.05;;;15.50;99.90;;;;;;5009701;28;20419;-73
2022/06/13 07:26:07;;;;;;;4.63;2.45;;;15.70;99.90;;;;;;5017886;28;20116;-75
2022/06/13 07:28:33;;;;;;;4.88;2.08;;;16.00;99.90;;;;;;5015130;28;20133;-74
2022/06/13 07:30:58;;;;;;;4.30;2.20;;;15.90;99.90;;;;;;5009434;28;20137;-75
2022/06/13 07:33:25;;;;;;;7.30;2.53;;;15.80;99.90;;;;;;5026176;28;20037;-74
2022/06/13 07:35:50;;;;;;;5.55;1.73;;;15.70;99.90;;;;;;4993976;28;20073;-74
2022/06/13 07:38:16;;;;;;;2.80;1.13;;;15.50;99.90;;;;;;5030445;28;20501;-73
2022/06/13 07:40:44;;;;;;;3.20;1.17;;;15.10;99.90;;;;;;5001767;28;20096;-74
2022/06/13 07:43:26;;;;;;;3.17;1.02;;;14.90;99.90;;;;;;5037477;28;20635;-74
2022/06/13 07:45:52;;;;;;;2.72;1.42;;;14.70;99.90;;;;;;5016786;28;20041;-74
2022/06/13 07:48:18;;;;;;;3.75;1.33;;;14.70;99.90;;;;;;5011961;28;20073;-74
2022/06/13 07:50:44;;;;;;;2.72;1.27;;;14.60;99.90;;;;;;5024733;28;20065;-74
2022/06/13 07:53:13;;;;;;;3.75;1.30;;;14.50;99.90;;;;;;5025398;28;20506;-74
2022/06/13 07:55:39;;;;;;;3.30;1.35;;;14.50;99.90;;;;;;5025887;28;20033;-73
2022/06/13 07:58:06;;;;;;;2.97;1.30;;;14.70;99.90;;;;;;5041783;28;20515;-74
2022/06/13 08:00:35;;;;;;;4.32;1.55;;;14.90;99.90;;;;;;5024135;28;20188;-75
2022/06/13 08:03:04;;;;;;;3.95;1.48;;;15.20;99.90;;;;;;5013926;28;20041;-75
2022/06/13 08:05:30;;;;;;;5.20;2.08;;;15.30;99.90;;;;;;5017877;28;20045;-74
2022/06/13 08:07:56;;;;;;;6.15;1.70;;;15.50;99.90;;;;;;5022680;28;20049;-75
2022/06/13 08:10:23;;;;;;;2.90;1.52;;;15.50;99.90;;;;;;5009020;28;20505;-74
2022/06/13 08:12:48;;;;;;;4.80;1.80;;;15.70;99.90;;;;;;5022600;28;20124;-75
2022/06/13 08:15:15;;;;;;;2.97;1.50;;;15.80;99.90;;;;;;5008606;28;20117;-75
2022/06/13 08:17:41;;;;;;;4.68;1.80;;;16.00;99.90;;;;;;5008778;28;20038;-76
2022/06/13 08:20:09;;;;;;;2.20;1.60;;;16.20;99.90;;;;;;5008002;28;20100;-75
2022/06/13 08:22:46;;;;;;;4.07;1.63;;;16.40;99.90;;;;;;5004174;28;20113;-75
2022/06/13 08:25:27;;;;;;;3.58;1.60;;;16.70;99.90;;;;;;5026598;28;20128;-75
2022/06/13 08:27:57;;;;;;;6.72;1.90;;;16.80;99.90;;;;;;5037384;28;20068;-75
2022/06/13 08:30:31;;;;;;;4.68;1.58;;;16.80;99.90;;;;;;4985740;28;20048;-75
2022/06/13 08:33:00;;;;;;;2.92;1.75;;;16.80;99.90;;;;;;5019696;28;20034;-76
2022/06/13 08:35:26;;;;;;;3.00;1.50;;;16.70;99.90;;;;;;5006070;28;20056;-75
2022/06/13 08:37:52;;;;;;;4.20;1.63;;;16.70;99.90;;;;;;5008733;28;20050;-76
2022/06/13 08:40:18;;;;;;;4.47;1.73;;;16.50;99.90;;;;;;5021724;28;20044;-76
2022/06/13 08:43:08;;;;;;;1.77;1.30;;;16.40;99.90;;;;;;5019423;28;20103;-76
2022/06/13 08:45:42;;;;;;;4.50;1.55;;;16.40;99.90;;;;;;5019785;28;20046;-76
2022/06/13 08:48:36;;;;;;;3.17;1.25;;;16.50;99.90;;;;;;5021399;28;20046;-74
2022/06/13 08:51:10;;;;;;;7.65;1.67;;;16.60;99.90;;;;;;5017430;28;20398;-76
2022/06/13 08:53:56;;;;;;;5.68;2.45;;;16.80;99.90;;;;;;5027138;28;20392;-74
2022/06/13 08:56:25;;;;;;;4.85;1.85;;;17.00;99.90;;;;;;5008352;28;20049;-74
2022/06/13 08:58:57;;;;;;;4.38;1.65;;;17.30;99.90;;;;;;5023424;28;20041;-74
2022/06/13 09:01:30;;;;;;;4.65;1.67;;;17.60;99.90;;;;;;5027153;28;20041;-75
2022/06/13 09:04:14;;;;;;;4.65;1.67;;;17.90;99.90;;;;;;5036148;28;20045;-74
2022/06/13 09:06:49;;;;;;;6.07;1.38;;;18.00;99.90;;;;;;5045435;28;20121;-74
2022/06/13 09:09:18;;;;;;;5.30;2.08;;;18.10;99.90;;;;;;5045451;28;20045;-75
2022/06/13 09:11:53;;;;;;;6.05;1.85;;;18.20;99.90;;;;;;5001547;28;20045;-75
2022/06/13 09:14:32;;;;;;;3.65;1.45;;;18.30;99.90;;;;;;5044640;28;20079;-74
2022/06/13 09:17:05;;;;;;;7.40;1.92;;;18.20;99.90;;;;;;4995433;28;20048;-73
2022/06/13 09:20:07;;;;;;;2.97;1.33;;;18.10;99.90;;;;;;5006182;28;20597;-74
2022/06/13 09:22:43;;;;;;;4.80;1.75;;;18.10;99.40;;;;;;5011982;28;20049;-76
2022/06/13 09:25:30;;;;;;;3.72;1.65;;;18.10;99.80;;;;;;5011713;28;20061;-76
2022/06/13 09:28:04;;;;;;;4.78;1.42;;;18.20;99.90;;;;;;5021650;28;20054;-76
2022/06/13 09:30:35;;;;;;;4.70;2.08;;;18.40;99.80;;;;;;5030182;28;20049;-75
2022/06/13 09:33:09;;;;;;;6.47;1.70;;;18.10;99.00;;;;;;5025871;28;20119;-76
2022/06/13 09:35:54;;;;;;;3.25;1.45;;;17.80;99.30;;;;;;5017156;28;20487;-75
2022/06/13 09:38:27;;;;;;;4.20;1.58;;;17.50;98.90;;;;;;5042224;28;20406;-76
2022/06/13 09:41:01;;;;;;;3.42;1.60;;;17.20;99.00;;;;;;4998888;28;20045;-75
2022/06/13 09:43:53;;;;;;;6.20;1.70;;;17.00;98.80;;;;;;5022220;28;20558;-76
2022/06/13 09:46:29;;;;;;;3.45;1.52;;;17.20;99.10;;;;;;5024439;28;20494;-75
2022/06/13 09:49:37;;;;;;;3.95;1.83;;;17.50;98.60;;;;;;5022524;28;20053;-75
2022/06/13 09:52:14;;;;;;;2.45;1.20;;;17.90;97.70;;;;;;5035541;28;20037;-76
2022/06/13 09:54:48;;;;;;;4.85;1.50;;;18.20;98.50;;;;;;5038446;28;20053;-77
2022/06/13 09:57:24;;;;;;;4.93;1.30;;;18.60;97.30;;;;;;5023639;28;20120;-75
2022/06/13 09:59:50;;;;;;;6.13;1.38;;;18.80;97.20;;;;;;5006644;28;20099;-75
2022/06/13 10:02:29;;;;;;;3.78;1.15;;;18.70;97.40;;;;;;5018376;28;20416;-76
2022/06/13 10:05:03;;;;;;;8.75;1.58;;;18.50;96.80;;;;;;5011009;28;20046;-76
2022/06/13 10:07:51;;;;;;;2.60;1.38;;;18.20;97.30;;;;;;5010984;28;20053;-75
2022/06/13 10:10:32;;;;;;;2.60;1.35;;;17.80;96.40;;;;;;5010492;28;20092;-75
2022/06/13 10:13:14;;;;;;;4.97;1.63;;;17.70;97.30;;;;;;5025790;28;20099;-75
2022/06/13 10:15:58;;;;;;;4.50;1.80;;;17.60;97.40;;;;;;5027147;28;20046;-77
2022/06/13 10:18:43;;;;;;;4.82;1.40;;;17.50;97.20;;;;;;5010473;28;20049;-75
2022/06/13 10:21:38;;;;;;;5.65;1.52;;;17.30;96.50;;;;;;5007413;28;20120;-75
2022/06/13 10:24:41;;;;;;;3.55;2.55;;;17.30;97.10;;;;;;5020454;28;20034;-75
2022/06/13 10:27:38;;;;;;;5.28;1.92;;;17.30;97.20;;;;;;5029665;28;20470;-75
2022/06/13 10:30:13;;;;;;;4.20;1.50;;;17.50;97.50;;;;;;5017179;28;20046;-75
2022/06/13 10:33:05;;;;;;;2.67;1.30;;;17.50;98.10;;;;;;5010472;28;20052;-74
2022/06/13 10:35:49;;;;;;;3.73;1.30;;;17.50;97.90;;;;;;5023953;28;20515;-75
2022/06/13 10:38:42;;;;;;;4.07;1.70;;;17.50;98.40;;;;;;5030851;28;20080;-75
2022/06/13 10:41:09;;;;;;;6.28;1.52;;;17.60;99.20;;;;;;5016200;28;20037;-75
2022/06/13 10:43:42;;;;;;;7.05;1.60;;;18.20;98.90;;;;;;5017665;28;20705;-77
2022/06/13 10:46:11;;;;;;;5.55;1.50;;;18.70;98.40;;;;;;5059598;28;20033;-76
2022/06/13 10:48:48;;;;;;;3.40;1.33;;;18.50;97.40;;;;;;5041633;28;20399;-75
2022/06/13 10:51:14;;;;;;;6.50;1.83;;;18.40;97.00;;;;;;5035600;28;20087;-77
2022/06/13 10:53:45;;;;;;;4.38;1.60;;;17.90;97.60;;;;;;5027040;28;20613;-74
2022/06/13 10:56:29;;;;;;;5.03;1.35;;;17.60;97.50;;;;;;5034440;28;20025;-74
2022/06/13 10:58:59;;;;;;;3.80;1.50;;;17.20;97.80;;;;;;5008294;28;20042;-74
2022/06/13 11:01:32;;;;;;;5.82;1.70;;;17.00;98.20;;;;;;5009265;28;20234;-75
2022/06/13 11:04:21;;;;;;;2.50;1.50;;;17.10;97.90;;;;;;5026529;28;20050;-75
2022/06/13 11:06:56;;;;;;;4.88;1.90;;;17.50;99.10;;;;;;5009609;28;20049;-75
2022/06/13 11:09:37;;;;;;;4.03;1.60;;;18.00;98.30;;;;;;5009636;28;20058;-75
2022/06/13 11:12:14;;;;;;;5.15;1.40;;;18.00;97.80;;;;;;5026450;28;20118;-75
2022/06/13 11:23:08;;;;;;;4.47;1.70;;;17.30;98.00;;;;;;5008736;28;20120;-74
2022/06/13 11:25:36;;;;;;;3.75;1.80;;;16.90;98.20;;;;;;5010968;28;20042;-75
2022/06/13 11:28:09;;;;;;;3.95;1.33;;;16.90;98.30;;;;;;5004371;28;20049;-74
2022/06/13 11:30:45;;;;;;;6.70;1.75;;;16.80;98.10;;;;;;5014156;28;20049;-74
2022/06/13 11:33:10;;;;;;;4.95;1.27;;;16.70;98.30;;;;;;5009521;28;20451;-75
2022/06/13 11:35:43;;;;;;;5.15;1.55;;;16.60;98.10;;;;;;5009526;28;20125;-74
2022/06/13 11:38:20;;;;;;;3.30;1.20;;;16.70;97.30;;;;;;5026092;28;20462;-74
2022/06/13 11:41:00;;;;;;;5.68;1.67;;;16.80;97.10;;;;;;5029815;28;20432;-75
2022/06/13 11:43:50;;;;;;;5.22;1.38;;;16.90;97.70;;;;;;5034343;28;20038;-74
2022/06/13 11:46:28;;;;;;;3.05;1.50;;;17.30;97.50;;;;;;5012715;28;20553;-75
2022/06/13 11:49:22;;;;;;;6.75;2.13;;;17.50;97.70;;;;;;5025061;28;20328;-74
2022/06/13 11:52:09;;;;;;;4.95;1.27;;;17.60;97.20;;;;;;4999616;28;20038;-74
2022/06/13 11:54:34;;;;;;;6.63;1.60;;;17.90;98.60;;;;;;5012747;28;20178;-74
2022/06/13 11:57:15;;;;;;;7.88;2.22;;;18.40;97.90;;;;;;5024947;28;20034;-78
2022/06/13 11:59:54;;;;;;;4.32;1.70;;;18.30;97.00;;;;;;5013220;28;20128;-75
2022/06/13 12:02:39;;;;;;;3.58;1.88;;;18.40;98.30;;;;;;5017802;28;20034;-75
2022/06/13 12:05:21;;;;;;;6.57;1.70;;;18.70;97.00;;;;;;5008989;28;20132;-75
2022/06/13 12:08:00;;;;;;;3.60;1.60;;;19.00;97.20;;;;;;5048217;28;20068;-75
2022/06/13 12:10:36;;;;;;;4.20;1.40;;;19.50;97.60;;;;;;5032258;28;20446;-75
2022/06/13 12:13:12;;;;;;;6.50;1.80;;;19.90;94.40;;;;;;5025620;28;20065;-75
2022/06/13 12:15:43;;;;;;;6.03;1.73;;;19.70;94.10;;;;;;5016224;28;20491;-75
2022/06/13 12:18:14;;;;;;;3.40;1.27;;;19.60;94.30;;;;;;5025393;28;20406;-75
2022/06/13 12:21:25;;;;;;;3.60;1.60;;;19.60;94.30;;;;;;5025181;28;20054;-74
2022/06/13 12:24:17;;;;;;;3.28;1.25;;;19.60;92.70;;;;;;5008704;28;20507;-76
2022/06/13 12:26:59;;;;;;;7.68;1.38;;;19.50;93.60;;;;;;5022222;28;20060;-74
2022/06/13 12:29:54;;;;;;;5.43;1.55;;;19.10;92.30;;;;;;5035726;28;20045;-74
2022/06/13 12:32:30;;;;;;;4.97;1.60;;;18.90;92.80;;;;;;5013027;28;20056;-75
2022/06/13 12:35:02;;;;;;;4.30;1.60;;;18.60;92.80;;;;;;5031878;28;20037;-75
2022/06/13 12:37:33;;;;;;;3.83;1.50;;;18.30;93.80;;;;;;5033248;28;20090;-74
2022/06/13 12:40:04;;;;;;;7.60;1.70;;;18.30;94.00;;;;;;5024400;28;20268;-74
2022/06/13 12:43:03;;;;;;;4.80;1.45;;;18.30;93.50;;;;;;5019422;28;20217;-74
2022/06/13 12:45:38;;;;;;;3.40;1.30;;;18.40;94.00;;;;;;5047891;28;20560;-75
2022/06/13 12:48:29;;;;;;;7.63;1.60;;;18.50;93.80;;;;;;5032147;28;20044;-74
2022/06/13 12:51:10;;;;;;;3.67;1.90;;;18.60;94.40;;;;;;5030361;28;20070;-74
2022/06/13 12:53:47;;;;;;;4.47;1.92;;;18.90;94.80;;;;;;5043099;28;20029;-74
2022/06/13 12:56:47;;;;;;;7.85;2.53;;;19.10;94.60;;;;;;5034757;28;20049;-75
2022/06/13 12:59:37;;;;;;;6.70;1.92;;;19.00;95.20;;;;;;5039139;28;20052;-75
2022/06/13 13:02:40;;;;;;;7.63;2.03;;;18.70;95.40;;;;;;5022788;28;20037;-76
2022/06/13 13:05:17;;;;;;;7.78;1.92;;;18.60;95.30;;;;;;5035012;28;20034;-74
2022/06/13 13:07:49;;;;;;;6.18;2.40;;;18.50;95.80;;;;;;5021621;28;20063;-74
2022/06/13 13:10:33;;;;;;;;;;;18.20;95.80;;;;;;5026059;28;20041;-74
2022/06/13 13:13:15;;;;;;;9.23;1.88;;;18.20;96.40;;;;;;5037972;28;19971;-74
2022/06/13 13:15:43;;;;;;;7.47;2.33;;;18.30;96.10;;;;;;5028411;28;20041;-74
2022/06/13 13:18:42;;;;;;;5.40;1.85;;;18.30;96.00;;;;;;5024114;28;20501;-75
2022/06/13 13:21:11;;;;;;;5.97;2.08;;;18.30;96.00;;;;;;5012418;28;20567;-74
2022/06/13 13:23:42;;;;;;;6.40;1.70;;;18.30;96.10;;;;;;5013932;28;20045;-74
2022/06/13 13:26:19;;;;;;;6.80;1.73;;;18.50;96.00;;;;;;5029367;28;20523;-75
2022/06/13 13:29:07;;;;;;;4.80;1.88;;;18.80;95.50;;;;;;5021024;28;20053;-75
2022/06/13 13:31:45;;;;;;;5.10;1.55;;;18.80;93.50;;;;;;5033761;28;20053;-75
2022/06/13 13:34:55;;;;;;;4.65;1.77;;;18.70;94.00;;;;;;5026959;28;20521;-75
2022/06/13 13:37:31;;;;;;;7.68;1.80;;;18.50;93.90;;;;;;5011973;28;20533;-75
2022/06/13 13:40:01;;;;;;;5.38;1.67;;;18.50;94.20;;;;;;5031790;28;20060;-75
2022/06/13 13:42:53;;;;;;;4.53;2.10;;;18.70;94.20;;;;;;5018277;28;20300;-76
2022/06/13 13:45:28;;;;;;;5.25;1.60;;;18.70;93.50;;;;;;5028676;28;20128;-76
2022/06/13 13:48:01;;;;;;;4.50;1.77;;;19.10;94.20;;;;;;5017772;28;20041;-75